^^
Station Historical Data
Daily Summary for October 13, 2017 Units:  Both    English   Metric
« Previous Day
Next Day »
Daily Weekly Monthly Yearly Custom
  High: Low: Average:
Temperature: 60.4 °F /  15.8 °C 34.6 °F /  1.4 °C 47.9 °F /  8.8 °C
Dew Point: 49.9 °F /  9.9 °C 32.8 °F /  0.4 °C 42.6 °F /  5.9 °C
Humidity: 100 % 60 % 83 %
Wind Speed: 1.0 mph /  1.6 km/h - 0 mph /  0 km/h
Wind Gust: 4.0 mph /  6.4 km/h - -
Wind:- - East
Pressure: 30.41 in /  1029.7 hPa 30.16 in /  1021.2 hPa -
Precipitation: 0.00 in /  0 mm    
Historical Graphs
 
 
Tabular Data for October 13, 2017
Time Temperature Dew Point Pressure Wind Wind Speed Wind Gust Humidity Rainfall Rate (Hourly) solar Conditions
00:09 38.3 °F /  3.5 °C 35.9 °F /  2.2 °C 30.40 in /  1029.3 hPa Calm     91 % 0.00 in /  0 mm WeatherDisplay:10.37 W/m2 SKC
00:19 38.3 °F /  3.5 °C 36.2 °F /  2.3 °C 30.40 in /  1029.3 hPa Calm     92 % 0.00 in /  0 mm WeatherDisplay:10.37 W/m2 SKC
00:24 38.3 °F /  3.5 °C 36.2 °F /  2.3 °C 30.40 in /  1029.3 hPa Calm     92 % 0.00 in /  0 mm WeatherDisplay:10.37 W/m2 SKC
00:29 38.4 °F /  3.6 °C 36.3 °F /  2.4 °C 30.40 in /  1029.3 hPa Calm     92 % 0.00 in /  0 mm WeatherDisplay:10.37 W/m2 SKC
00:34 38.5 °F /  3.6 °C 36.6 °F /  2.6 °C 30.41 in /  1029.7 hPa Calm     93 % 0.00 in /  0 mm WeatherDisplay:10.37 W/m2 SKC
00:39 38.5 °F /  3.6 °C 36.7 °F /  2.6 °C 30.40 in /  1029.3 hPa Calm     93 % 0.00 in /  0 mm WeatherDisplay:10.37 W/m2 SKC
00:44 38.6 °F /  3.7 °C 36.8 °F /  2.7 °C 30.40 in /  1029.3 hPa Calm     93 % 0.00 in /  0 mm WeatherDisplay:10.37 W/m2 SKC
00:49 38.6 °F /  3.7 °C 36.8 °F /  2.7 °C 30.40 in /  1029.3 hPa Calm     93 % 0.00 in /  0 mm WeatherDisplay:10.37 W/m2 SKC
00:59 38.7 °F /  3.7 °C 36.8 °F /  2.7 °C 30.40 in /  1029.3 hPa Calm     93 % 0.00 in /  0 mm WeatherDisplay:10.37 W/m2 SKC
01:04 38.7 °F /  3.7 °C 36.9 °F /  2.7 °C 30.40 in /  1029.3 hPa Calm     93 % 0.00 in /  0 mm WeatherDisplay:10.37 W/m2 SKC
01:09 38.7 °F /  3.7 °C 36.9 °F /  2.7 °C 30.40 in /  1029.3 hPa Calm     93 % 0.00 in /  0 mm WeatherDisplay:10.37 W/m2 SKC
01:14 38.7 °F /  3.7 °C 36.9 °F /  2.7 °C 30.40 in /  1029.3 hPa Calm     93 % 0.00 in /  0 mm WeatherDisplay:10.37 W/m2 SKC
01:19 38.8 °F /  3.8 °C 37.2 °F /  2.9 °C 30.40 in /  1029.3 hPa Calm     94 % 0.00 in /  0 mm WeatherDisplay:10.37 W/m2 SKC
01:24 38.8 °F /  3.8 °C 37.2 °F /  2.9 °C 30.40 in /  1029.3 hPa Calm     94 % 0.00 in /  0 mm WeatherDisplay:10.37 W/m2 SKC
01:29 38.8 °F /  3.8 °C 37.2 °F /  2.9 °C 30.40 in /  1029.3 hPa Calm     94 % 0.00 in /  0 mm WeatherDisplay:10.37 W/m2 SKC
01:34 38.8 °F /  3.8 °C 36.9 °F /  2.7 °C 30.40 in /  1029.3 hPa Calm     93 % 0.00 in /  0 mm WeatherDisplay:10.37 W/m2 SKC
01:39 38.8 °F /  3.8 °C 36.9 °F /  2.7 °C 30.41 in /  1029.7 hPa Calm     93 % 0.00 in /  0 mm WeatherDisplay:10.37 W/m2 SKC
01:44 38.8 °F /  3.8 °C 37.2 °F /  2.9 °C 30.40 in /  1029.3 hPa Calm     94 % 0.00 in /  0 mm WeatherDisplay:10.37 W/m2 SKC
01:49 38.8 °F /  3.8 °C 36.9 °F /  2.7 °C 30.41 in /  1029.7 hPa Calm     93 % 0.00 in /  0 mm WeatherDisplay:10.37 W/m2 SKC
01:54 38.7 °F /  3.7 °C 36.9 °F /  2.7 °C 30.40 in /  1029.3 hPa Calm     93 % 0.00 in /  0 mm WeatherDisplay:10.37 W/m2 SKC
01:59 38.6 °F /  3.7 °C 36.8 °F /  2.7 °C 30.40 in /  1029.3 hPa Calm     93 % 0.00 in /  0 mm WeatherDisplay:10.37 W/m2 SKC
02:04 38.6 °F /  3.7 °C 36.8 °F /  2.7 °C 30.40 in /  1029.3 hPa Calm     93 % 0.00 in /  0 mm WeatherDisplay:10.37 W/m2 SKC
02:09 38.5 °F /  3.6 °C 36.7 °F /  2.6 °C 30.40 in /  1029.3 hPa Calm     93 % 0.00 in /  0 mm WeatherDisplay:10.37 W/m2 SKC
02:14 38.5 °F /  3.6 °C 36.7 °F /  2.6 °C 30.40 in /  1029.3 hPa Calm     93 % 0.00 in /  0 mm WeatherDisplay:10.37 W/m2 SKC
02:19 38.4 °F /  3.6 °C 36.6 °F /  2.6 °C 30.40 in /  1029.3 hPa Calm     93 % 0.00 in /  0 mm WeatherDisplay:10.37 W/m2 SKC
02:24 38.3 °F /  3.5 °C 36.5 °F /  2.5 °C 30.40 in /  1029.3 hPa Calm     93 % 0.00 in /  0 mm WeatherDisplay:10.37 W/m2 SKC
02:29 38.3 °F /  3.5 °C 36.5 °F /  2.5 °C 30.40 in /  1029.3 hPa Calm     93 % 0.00 in /  0 mm WeatherDisplay:10.37 W/m2 SKC
02:34 38.2 °F /  3.4 °C 36.4 °F /  2.4 °C 30.40 in /  1029.3 hPa Calm     93 % 0.00 in /  0 mm WeatherDisplay:10.37 W/m2 SKC
02:39 38.2 °F /  3.4 °C 36.4 °F /  2.4 °C 30.39 in /  1029 hPa Calm     93 % 0.00 in /  0 mm WeatherDisplay:10.37 W/m2 SKC
02:44 38.1 °F /  3.4 °C 36.3 °F /  2.4 °C 30.39 in /  1029 hPa Calm     93 % 0.00 in /  0 mm WeatherDisplay:10.37 W/m2 SKC
02:49 38.1 °F /  3.4 °C 36.3 °F /  2.4 °C 30.39 in /  1029 hPa Calm     93 % 0.00 in /  0 mm WeatherDisplay:10.37 W/m2 SKC
02:54 38.0 °F /  3.3 °C 36.2 °F /  2.3 °C 30.39 in /  1029 hPa Calm     93 % 0.00 in /  0 mm WeatherDisplay:10.37 W/m2 SKC
02:59 37.9 °F /  3.3 °C 36.1 °F /  2.3 °C 30.39 in /  1029 hPa Calm     93 % 0.00 in /  0 mm WeatherDisplay:10.37 W/m2 SKC
03:04 37.9 °F /  3.3 °C 36.0 °F /  2.2 °C 30.39 in /  1029 hPa Calm     93 % 0.00 in /  0 mm WeatherDisplay:10.37 W/m2 SKC
03:09 37.8 °F /  3.2 °C 36.0 °F /  2.2 °C 30.39 in /  1029 hPa Calm     93 % 0.00 in /  0 mm WeatherDisplay:10.37 W/m2 SKC
03:14 37.7 °F /  3.2 °C 35.9 °F /  2.2 °C 30.38 in /  1028.7 hPa Calm     93 % 0.00 in /  0 mm WeatherDisplay:10.37 W/m2 SKC
03:19 37.7 °F /  3.2 °C 35.8 °F /  2.1 °C 30.38 in /  1028.7 hPa Calm     93 % 0.00 in /  0 mm WeatherDisplay:10.37 W/m2 SKC
03:24 37.6 °F /  3.1 °C 35.8 °F /  2.1 °C 30.38 in /  1028.7 hPa Calm     93 % 0.00 in /  0 mm WeatherDisplay:10.37 W/m2 SKC
03:29 37.4 °F /  3 °C 35.6 °F /  2 °C 30.38 in /  1028.7 hPa Calm     93 % 0.00 in /  0 mm WeatherDisplay:10.37 W/m2 SKC
03:34 37.4 °F /  3 °C 35.6 °F /  2 °C 30.38 in /  1028.7 hPa Calm     93 % 0.00 in /  0 mm WeatherDisplay:10.37 W/m2 SKC
03:39 37.3 °F /  2.9 °C 35.5 °F /  1.9 °C 30.38 in /  1028.7 hPa Calm     93 % 0.00 in /  0 mm WeatherDisplay:10.37 W/m2 SKC
03:44 37.2 °F /  2.9 °C 35.4 °F /  1.9 °C 30.38 in /  1028.7 hPa Calm     93 % 0.00 in /  0 mm WeatherDisplay:10.37 W/m2 SKC
03:49 37.1 °F /  2.8 °C 35.3 °F /  1.8 °C 30.38 in /  1028.7 hPa Calm     93 % 0.00 in /  0 mm WeatherDisplay:10.37 W/m2 SKC
03:54 37.0 °F /  2.8 °C 35.2 °F /  1.8 °C 30.39 in /  1029 hPa Calm     93 % 0.00 in /  0 mm WeatherDisplay:10.37 W/m2 SKC
04:04 36.9 °F /  2.7 °C 35.1 °F /  1.7 °C 30.39 in /  1029 hPa Calm     93 % 0.00 in /  0 mm WeatherDisplay:10.37 W/m2 SKC
04:09 36.8 °F /  2.7 °C 35.0 °F /  1.7 °C 30.39 in /  1029 hPa Calm     93 % 0.00 in /  0 mm WeatherDisplay:10.37 W/m2 SKC
04:14 36.7 °F /  2.6 °C 34.9 °F /  1.6 °C 30.38 in /  1028.7 hPa Calm     93 % 0.00 in /  0 mm WeatherDisplay:10.37 W/m2 SKC
04:19 36.6 °F /  2.6 °C 34.8 °F /  1.6 °C 30.38 in /  1028.7 hPa Calm     93 % 0.00 in /  0 mm WeatherDisplay:10.37 W/m2 SKC
04:24 36.5 °F /  2.5 °C 34.7 °F /  1.5 °C 30.38 in /  1028.7 hPa Calm     93 % 0.00 in /  0 mm WeatherDisplay:10.37 W/m2 SKC
04:29 36.4 °F /  2.4 °C 34.6 °F /  1.4 °C 30.38 in /  1028.7 hPa Calm     93 % 0.00 in /  0 mm WeatherDisplay:10.37 W/m2 SKC
04:34 36.3 °F /  2.4 °C 34.5 °F /  1.4 °C 30.38 in /  1028.7 hPa Calm     93 % 0.00 in /  0 mm WeatherDisplay:10.37 W/m2 SKC
04:39 36.3 °F /  2.4 °C 34.5 °F /  1.4 °C 30.38 in /  1028.7 hPa Calm     93 % 0.00 in /  0 mm WeatherDisplay:10.37 W/m2 SKC
04:44 36.2 °F /  2.3 °C 34.4 °F /  1.3 °C 30.38 in /  1028.7 hPa Calm     93 % 0.00 in /  0 mm WeatherDisplay:10.37 W/m2 SKC
04:49 36.2 °F /  2.3 °C 34.3 °F /  1.3 °C 30.38 in /  1028.7 hPa Calm     93 % 0.00 in /  0 mm WeatherDisplay:10.37 W/m2 SKC
04:54 36.1 °F /  2.3 °C 34.3 °F /  1.3 °C 30.38 in /  1028.7 hPa Calm     93 % 0.00 in /  0 mm WeatherDisplay:10.37 W/m2 SKC
04:59 36.0 °F /  2.2 °C 34.2 °F /  1.2 °C 30.38 in /  1028.7 hPa Calm     93 % 0.00 in /  0 mm WeatherDisplay:10.37 W/m2 SKC
05:04 36.0 °F /  2.2 °C 34.2 °F /  1.2 °C 30.38 in /  1028.7 hPa Calm     93 % 0.00 in /  0 mm WeatherDisplay:10.37 W/m2 SKC
05:09 35.9 °F /  2.2 °C 34.1 °F /  1.2 °C 30.38 in /  1028.7 hPa Calm     93 % 0.00 in /  0 mm WeatherDisplay:10.37 W/m2 SKC
05:19 35.8 °F /  2.1 °C 34.0 °F /  1.1 °C 30.38 in /  1028.7 hPa Calm     93 % 0.00 in /  0 mm WeatherDisplay:10.37 W/m2 SKC
05:24 35.8 °F /  2.1 °C 33.9 °F /  1.1 °C 30.38 in /  1028.7 hPa Calm     93 % 0.00 in /  0 mm WeatherDisplay:10.37 W/m2 SKC
05:29 35.7 °F /  2.1 °C 33.9 °F /  1.1 °C 30.38 in /  1028.7 hPa Calm     93 % 0.00 in /  0 mm WeatherDisplay:10.37 W/m2 SKC
05:34 35.6 °F /  2 °C 33.8 °F /  1 °C 30.38 in /  1028.7 hPa Calm     93 % 0.00 in /  0 mm WeatherDisplay:10.37 W/m2 SKC
05:39 35.6 °F /  2 °C 33.8 °F /  1 °C 30.38 in /  1028.7 hPa Calm     93 % 0.00 in /  0 mm WeatherDisplay:10.37 W/m2 SKC
05:44 35.5 °F /  1.9 °C 33.7 °F /  0.9 °C 30.38 in /  1028.7 hPa Calm     93 % 0.00 in /  0 mm WeatherDisplay:10.37 W/m2 SKC
05:49 35.5 °F /  1.9 °C 33.7 °F /  0.9 °C 30.38 in /  1028.7 hPa Calm     93 % 0.00 in /  0 mm WeatherDisplay:10.37 W/m2 SKC
05:54 35.4 °F /  1.9 °C 33.6 °F /  0.9 °C 30.38 in /  1028.7 hPa Calm     93 % 0.00 in /  0 mm WeatherDisplay:10.37 W/m2 SKC
05:59 35.3 °F /  1.8 °C 33.5 °F /  0.8 °C 30.38 in /  1028.7 hPa Calm     93 % 0.00 in /  0 mm WeatherDisplay:10.37 W/m2 SKC
06:04 35.2 °F /  1.8 °C 33.4 °F /  0.8 °C 30.38 in /  1028.7 hPa Calm     93 % 0.00 in /  0 mm WeatherDisplay:10.37 W/m2 SKC
06:09 35.2 °F /  1.8 °C 33.4 °F /  0.8 °C 30.38 in /  1028.7 hPa Calm     93 % 0.00 in /  0 mm WeatherDisplay:10.37 W/m2 SKC
06:14 35.1 °F /  1.7 °C 33.3 °F /  0.7 °C 30.38 in /  1028.7 hPa Calm     93 % 0.00 in /  0 mm WeatherDisplay:10.37 W/m2 SKC
06:19 35.1 °F /  1.7 °C 33.3 °F /  0.7 °C 30.38 in /  1028.7 hPa Calm     93 % 0.00 in /  0 mm WeatherDisplay:10.37 W/m2 SKC
06:24 35.0 °F /  1.7 °C 33.2 °F /  0.7 °C 30.38 in /  1028.7 hPa Calm     93 % 0.00 in /  0 mm WeatherDisplay:10.37 W/m2 SKC
06:29 34.9 °F /  1.6 °C 33.1 °F /  0.6 °C 30.38 in /  1028.7 hPa Calm     93 % 0.00 in /  0 mm WeatherDisplay:10.37 W/m2 SKC
06:34 34.9 °F /  1.6 °C 33.1 °F /  0.6 °C 30.38 in /  1028.7 hPa Calm     93 % 0.00 in /  0 mm WeatherDisplay:10.37 W/m2 SKC
06:39 34.8 °F /  1.6 °C 33.0 °F /  0.6 °C 30.38 in /  1028.7 hPa Calm     93 % 0.00 in /  0 mm WeatherDisplay:10.37 W/m2 SKC
06:44 34.7 °F /  1.5 °C 32.9 °F /  0.5 °C 30.38 in /  1028.7 hPa Calm     93 % 0.00 in /  0 mm WeatherDisplay:10.37 W/m2 SKC
06:49 34.7 °F /  1.5 °C 32.9 °F /  0.5 °C 30.38 in /  1028.7 hPa Calm     93 % 0.00 in /  0 mm WeatherDisplay:10.37 W/m2 SKC
06:54 34.7 °F /  1.5 °C 33.2 °F /  0.7 °C 30.38 in /  1028.7 hPa Calm     94 % 0.00 in /  0 mm WeatherDisplay:10.37 W/m2 SKC
07:04 34.6 °F /  1.4 °C 32.8 °F /  0.4 °C 30.38 in /  1028.7 hPa Calm     93 % 0.00 in /  0 mm WeatherDisplay:10.37 W/m2 SKC
07:09 34.6 °F /  1.4 °C 32.8 °F /  0.4 °C 30.38 in /  1028.7 hPa Calm     93 % 0.00 in /  0 mm WeatherDisplay:10.37 W/m2 SKC
07:14 34.6 °F /  1.4 °C 33.1 °F /  0.6 °C 30.38 in /  1028.7 hPa Calm     94 % 0.00 in /  0 mm WeatherDisplay:10.37 W/m2 FEW
07:19 34.6 °F /  1.4 °C 33.1 °F /  0.6 °C 30.38 in /  1028.7 hPa Calm     94 % 0.00 in /  0 mm WeatherDisplay:10.37 W/m2 FEW
07:24 34.6 °F /  1.4 °C 33.1 °F /  0.6 °C 30.38 in /  1028.7 hPa Calm     94 % 0.00 in /  0 mm WeatherDisplay:10.37 W/m2 FEW
07:29 34.6 °F /  1.4 °C 33.1 °F /  0.6 °C 30.38 in /  1028.7 hPa Calm     94 % 0.00 in /  0 mm WeatherDisplay:10.37 W/m2 FEW
07:34 34.7 °F /  1.5 °C 33.1 °F /  0.6 °C 30.38 in /  1028.7 hPa Calm     94 % 0.00 in /  0 mm WeatherDisplay:10.37 W/m2 FEW
07:39 34.7 °F /  1.5 °C 33.2 °F /  0.7 °C 30.38 in /  1028.7 hPa Calm     94 % 0.00 in /  0 mm WeatherDisplay:10.37 W/m2 FEW
07:49 34.8 °F /  1.6 °C 33.2 °F /  0.7 °C 30.38 in /  1028.7 hPa Calm     94 % 0.00 in /  0 mm WeatherDisplay:10.37 W/m2 FEW
07:54 34.9 °F /  1.6 °C 33.3 °F /  0.7 °C 30.38 in /  1028.7 hPa Calm     94 % 0.00 in /  0 mm WeatherDisplay:10.37 W/m2 FEW
07:59 35.0 °F /  1.7 °C 33.4 °F /  0.8 °C 30.38 in /  1028.7 hPa Calm     94 % 0.00 in /  0 mm WeatherDisplay:10.37 W/m2 FEW
08:04 35.2 °F /  1.8 °C 33.6 °F /  0.9 °C 30.38 in /  1028.7 hPa Calm     94 % 0.00 in /  0 mm WeatherDisplay:10.37 W/m2 FEW
08:09 35.4 °F /  1.9 °C 34.1 °F /  1.2 °C 30.37 in /  1028.3 hPa Calm     95 % 0.00 in /  0 mm WeatherDisplay:10.37 W/m2 FEW
08:14 35.6 °F /  2 °C 34.3 °F /  1.3 °C 30.38 in /  1028.7 hPa Calm     95 % 0.00 in /  0 mm WeatherDisplay:10.37 W/m2 FEW
08:19 35.9 °F /  2.2 °C 34.6 °F /  1.4 °C 30.38 in /  1028.7 hPa Calm     95 % 0.00 in /  0 mm WeatherDisplay:10.37 W/m2 FEW
08:24 36.2 °F /  2.3 °C 34.9 °F /  1.6 °C 30.38 in /  1028.7 hPa Calm     95 % 0.00 in /  0 mm WeatherDisplay:10.37 W/m2 FEW
08:29 36.6 °F /  2.6 °C 35.5 °F /  1.9 °C 30.38 in /  1028.7 hPa Calm     96 % 0.00 in /  0 mm WeatherDisplay:10.37 W/m2 FEW
08:34 37.0 °F /  2.8 °C 35.7 °F /  2.1 °C 30.38 in /  1028.7 hPa Calm     95 % 0.00 in /  0 mm WeatherDisplay:10.37 W/m2 FEW
08:39 37.3 °F /  2.9 °C 36.3 °F /  2.4 °C 30.38 in /  1028.7 hPa Calm     96 % 0.00 in /  0 mm WeatherDisplay:10.37 W/m2 FEW
08:49 38.1 °F /  3.4 °C 37.0 °F /  2.8 °C 30.38 in /  1028.7 hPa Calm     96 % 0.00 in /  0 mm WeatherDisplay:10.37 W/m2 FEW
08:54 38.4 °F /  3.6 °C 37.4 °F /  3 °C 30.38 in /  1028.7 hPa Calm   2.0 mph /  3.2 km/h 96 % 0.00 in /  0 mm WeatherDisplay:10.37 W/m2 FEW
08:59 38.9 °F /  3.8 °C 37.8 °F /  3.2 °C 30.38 in /  1028.7 hPa Calm   2.0 mph /  3.2 km/h 96 % 0.00 in /  0 mm WeatherDisplay:10.37 W/m2 FEW
09:04 39.3 °F /  4.1 °C 38.2 °F /  3.4 °C 30.37 in /  1028.3 hPa Calm   1.0 mph /  1.6 km/h 96 % 0.00 in /  0 mm WeatherDisplay:10.37 W/m2 FEW
09:09 39.7 °F /  4.3 °C 38.6 °F /  3.7 °C 30.37 in /  1028.3 hPa Calm     96 % 0.00 in /  0 mm WeatherDisplay:10.37 W/m2 FEW
09:14 40.1 °F /  4.5 °C 39.0 °F /  3.9 °C 30.37 in /  1028.3 hPa Calm     96 % 0.00 in /  0 mm WeatherDisplay:10.37 W/m2 FEW
09:19 40.5 °F /  4.7 °C 39.5 °F /  4.2 °C 30.37 in /  1028.3 hPa Calm     96 % 0.00 in /  0 mm WeatherDisplay:10.37 W/m2 FEW
09:29 41.4 °F /  5.2 °C 40.4 °F /  4.7 °C 30.37 in /  1028.3 hPa Calm     96 % 0.00 in /  0 mm WeatherDisplay:10.37 W/m2 FEW
09:34 41.8 °F /  5.4 °C 41.8 °F /  5.4 °C 30.36 in /  1028 hPa ESE 1.0 mph /  1.6 km/h 3.0 mph /  4.8 km/h 100 % 0.00 in /  0 mm WeatherDisplay:10.37 W/m2 FEW
09:39 42.3 °F /  5.7 °C 42.3 °F /  5.7 °C 30.36 in /  1028 hPa Calm     100 % 0.00 in /  0 mm WeatherDisplay:10.37 W/m2 FEW
09:44 42.8 °F /  6 °C 42.8 °F /  6 °C 30.36 in /  1028 hPa Calm   1.0 mph /  1.6 km/h 100 % 0.00 in /  0 mm WeatherDisplay:10.37 W/m2 FEW
09:49 43.2 °F /  6.2 °C 43.2 °F /  6.2 °C 30.36 in /  1028 hPa Calm     100 % 0.00 in /  0 mm WeatherDisplay:10.37 W/m2 FEW
09:54 43.8 °F /  6.6 °C 43.8 °F /  6.6 °C 30.36 in /  1028 hPa Calm   2.0 mph /  3.2 km/h 100 % 0.00 in /  0 mm WeatherDisplay:10.37 W/m2 FEW
09:59 44.4 °F /  6.9 °C 44.4 °F /  6.9 °C 30.36 in /  1028 hPa Calm   1.0 mph /  1.6 km/h 100 % 0.00 in /  0 mm WeatherDisplay:10.37 W/m2 FEW
10:04 44.9 °F /  7.2 °C 44.9 °F /  7.2 °C 30.36 in /  1028 hPa Calm   1.0 mph /  1.6 km/h 100 % 0.00 in /  0 mm WeatherDisplay:10.37 W/m2 FEW
10:09 45.5 °F /  7.5 °C 45.5 °F /  7.5 °C 30.36 in /  1028 hPa Calm   1.0 mph /  1.6 km/h 100 % 0.00 in /  0 mm WeatherDisplay:10.37 W/m2 FEW
10:14 46.0 °F /  7.8 °C 45.2 °F /  7.3 °C 30.36 in /  1028 hPa Calm   1.0 mph /  1.6 km/h 97 % 0.00 in /  0 mm WeatherDisplay:10.37 W/m2 FEW
10:19 46.5 °F /  8.1 °C 45.4 °F /  7.4 °C 30.35 in /  1027.7 hPa Calm   1.0 mph /  1.6 km/h 96 % 0.00 in /  0 mm WeatherDisplay:10.37 W/m2 FEW
10:24 47.0 °F /  8.3 °C 45.6 °F /  7.6 °C 30.35 in /  1027.7 hPa Calm   3.0 mph /  4.8 km/h 95 % 0.00 in /  0 mm WeatherDisplay:10.37 W/m2 FEW
10:29 47.5 °F /  8.6 °C 45.8 °F /  7.7 °C 30.35 in /  1027.7 hPa Calm     94 % 0.00 in /  0 mm WeatherDisplay:10.37 W/m2 FEW
10:34 47.8 °F /  8.8 °C 45.6 °F /  7.6 °C 30.35 in /  1027.7 hPa Calm     92 % 0.00 in /  0 mm WeatherDisplay:10.37 W/m2 FEW
10:39 48.2 °F /  9 °C 45.7 °F /  7.6 °C 30.35 in /  1027.7 hPa Calm     91 % 0.00 in /  0 mm WeatherDisplay:10.37 W/m2 FEW
10:44 48.5 °F /  9.2 °C 45.1 °F /  7.3 °C 30.35 in /  1027.7 hPa Calm   2.0 mph /  3.2 km/h 88 % 0.00 in /  0 mm WeatherDisplay:10.37 W/m2 FEW
10:49 48.8 °F /  9.3 °C 44.8 °F /  7.1 °C 30.34 in /  1027.3 hPa Calm   2.0 mph /  3.2 km/h 86 % 0.00 in /  0 mm WeatherDisplay:10.37 W/m2 FEW
10:54 49.1 °F /  9.5 °C 44.5 °F /  6.9 °C 30.34 in /  1027.3 hPa Calm   3.0 mph /  4.8 km/h 84 % 0.00 in /  0 mm WeatherDisplay:10.37 W/m2 FEW
10:59 49.4 °F /  9.7 °C 44.4 °F /  6.9 °C 30.34 in /  1027.3 hPa Calm     83 % 0.00 in /  0 mm WeatherDisplay:10.37 W/m2 FEW
11:04 49.6 °F /  9.8 °C 44.0 °F /  6.7 °C 30.34 in /  1027.3 hPa Calm   1.0 mph /  1.6 km/h 81 % 0.00 in /  0 mm WeatherDisplay:10.37 W/m2 FEW
11:09 49.9 °F /  9.9 °C 43.9 °F /  6.6 °C 30.34 in /  1027.3 hPa East 1.0 mph /  1.6 km/h 3.0 mph /  4.8 km/h 80 % 0.00 in /  0 mm WeatherDisplay:10.37 W/m2 FEW
11:14 50.2 °F /  10.1 °C 43.6 °F /  6.4 °C 30.34 in /  1027.3 hPa Calm   3.0 mph /  4.8 km/h 78 % 0.00 in /  0 mm WeatherDisplay:10.37 W/m2 FEW
11:19 50.4 °F /  10.2 °C 43.8 °F /  6.6 °C 30.34 in /  1027.3 hPa Calm   1.0 mph /  1.6 km/h 78 % 0.00 in /  0 mm WeatherDisplay:10.37 W/m2 FEW
11:24 50.7 °F /  10.4 °C 44.4 °F /  6.9 °C 30.33 in /  1027 hPa Calm     79 % 0.00 in /  0 mm WeatherDisplay:10.37 W/m2 FEW
11:29 51.1 °F /  10.6 °C 44.4 °F /  6.9 °C 30.33 in /  1027 hPa Calm   2.0 mph /  3.2 km/h 78 % 0.00 in /  0 mm WeatherDisplay:10.37 W/m2 FEW
11:34 51.4 °F /  10.8 °C 44.4 °F /  6.9 °C 30.33 in /  1027 hPa Calm   1.0 mph /  1.6 km/h 77 % 0.00 in /  0 mm WeatherDisplay:10.37 W/m2 FEW
11:39 51.7 °F /  10.9 °C 44.4 °F /  6.9 °C 30.33 in /  1027 hPa Calm   2.0 mph /  3.2 km/h 76 % 0.00 in /  0 mm WeatherDisplay:10.37 W/m2 FEW
11:44 52.0 °F /  11.1 °C 44.6 °F /  7 °C 30.33 in /  1027 hPa Calm   3.0 mph /  4.8 km/h 76 % 0.00 in /  0 mm WeatherDisplay:10.37 W/m2 FEW
11:49 52.3 °F /  11.3 °C 45.0 °F /  7.2 °C 30.33 in /  1027 hPa Calm   3.0 mph /  4.8 km/h 76 % 0.00 in /  0 mm WeatherDisplay:10.37 W/m2 FEW
11:54 52.6 °F /  11.4 °C 44.6 °F /  7 °C 30.33 in /  1027 hPa Calm   4.0 mph /  6.4 km/h 74 % 0.00 in /  0 mm WeatherDisplay:10.37 W/m2 FEW
12:04 53.1 °F /  11.7 °C 44.7 °F /  7.1 °C 30.32 in /  1026.6 hPa Calm     73 % 0.00 in /  0 mm WeatherDisplay:10.37 W/m2 FEW
12:09 53.4 °F /  11.9 °C 45.0 °F /  7.2 °C 30.32 in /  1026.6 hPa Calm   3.0 mph /  4.8 km/h 73 % 0.00 in /  0 mm WeatherDisplay:10.37 W/m2 FEW
12:14 53.6 °F /  12 °C 45.2 °F /  7.3 °C 30.32 in /  1026.6 hPa Calm   3.0 mph /  4.8 km/h 73 % 0.00 in /  0 mm WeatherDisplay:10.37 W/m2 BKN
12:19 53.9 °F /  12.2 °C 45.4 °F /  7.4 °C 30.31 in /  1026.3 hPa Calm     73 % 0.00 in /  0 mm WeatherDisplay:10.37 W/m2 BKN
12:24 54.1 °F /  12.3 °C 46.0 °F /  7.8 °C 30.31 in /  1026.3 hPa Calm   1.0 mph /  1.6 km/h 74 % 0.00 in /  0 mm WeatherDisplay:10.37 W/m2 BKN
12:29 54.4 °F /  12.4 °C 45.2 °F /  7.3 °C 30.31 in /  1026.3 hPa Calm   1.0 mph /  1.6 km/h 71 % 0.00 in /  0 mm WeatherDisplay:10.37 W/m2 BKN
12:39 54.9 °F /  12.7 °C 45.3 °F /  7.4 °C 30.29 in /  1025.6 hPa Calm   3.0 mph /  4.8 km/h 70 % 0.00 in /  0 mm WeatherDisplay:10.37 W/m2 BKN
12:44 55.1 °F /  12.8 °C 45.1 °F /  7.3 °C 30.29 in /  1025.6 hPa Calm   1.0 mph /  1.6 km/h 69 % 0.00 in /  0 mm WeatherDisplay:10.37 W/m2 BKN
12:49 55.3 °F /  12.9 °C 45.7 °F /  7.6 °C 30.28 in /  1025.3 hPa Calm   1.0 mph /  1.6 km/h 70 % 0.00 in /  0 mm WeatherDisplay:10.37 W/m2 BKN
12:54 55.5 °F /  13.1 °C 45.5 °F /  7.5 °C 30.28 in /  1025.3 hPa Calm   2.0 mph /  3.2 km/h 69 % 0.00 in /  0 mm WeatherDisplay:10.37 W/m2 BKN
12:59 55.7 °F /  13.2 °C 45.3 °F /  7.4 °C 30.28 in /  1025.3 hPa Calm   4.0 mph /  6.4 km/h 68 % 0.00 in /  0 mm WeatherDisplay:10.37 W/m2 BKN
13:04 55.8 °F /  13.2 °C 45.8 °F /  7.7 °C 30.28 in /  1025.3 hPa Calm   2.0 mph /  3.2 km/h 69 % 0.00 in /  0 mm WeatherDisplay:10.37 W/m2 BKN
13:09 56.0 °F /  13.3 °C 46.4 °F /  8 °C 30.28 in /  1025.3 hPa Calm   1.0 mph /  1.6 km/h 70 % 0.00 in /  0 mm WeatherDisplay:10.37 W/m2 BKN
13:19 56.5 °F /  13.6 °C 46.4 °F /  8 °C 30.27 in /  1024.9 hPa Calm   2.0 mph /  3.2 km/h 69 % 0.00 in /  0 mm WeatherDisplay:10.37 W/m2 FEW
13:24 56.7 °F /  13.7 °C 45.9 °F /  7.7 °C 30.27 in /  1024.9 hPa Calm   1.0 mph /  1.6 km/h 67 % 0.00 in /  0 mm WeatherDisplay:10.37 W/m2 FEW
13:29 56.9 °F /  13.8 °C 46.4 °F /  8 °C 30.26 in /  1024.6 hPa Calm     68 % 0.00 in /  0 mm WeatherDisplay:10.37 W/m2 FEW
13:34 57.0 °F /  13.9 °C 47.0 °F /  8.3 °C 30.26 in /  1024.6 hPa Calm   2.0 mph /  3.2 km/h 69 % 0.00 in /  0 mm WeatherDisplay:10.37 W/m2 FEW
13:39 57.3 °F /  14.1 °C 46.8 °F /  8.2 °C 30.26 in /  1024.6 hPa Calm   1.0 mph /  1.6 km/h 68 % 0.00 in /  0 mm WeatherDisplay:10.37 W/m2 FEW
13:44 57.5 °F /  14.2 °C 46.6 °F /  8.1 °C 30.25 in /  1024.3 hPa Calm   1.0 mph /  1.6 km/h 67 % 0.00 in /  0 mm WeatherDisplay:10.37 W/m2 FEW
13:49 57.9 °F /  14.4 °C 46.6 °F /  8.1 °C 30.25 in /  1024.3 hPa Calm   3.0 mph /  4.8 km/h 66 % 0.00 in /  0 mm WeatherDisplay:10.37 W/m2 FEW
13:59 58.4 °F /  14.7 °C 45.8 °F /  7.7 °C 30.24 in /  1023.9 hPa Calm     63 % 0.00 in /  0 mm WeatherDisplay:10.37 W/m2 FEW
14:04 58.6 °F /  14.8 °C 47.7 °F /  8.7 °C 30.24 in /  1023.9 hPa Calm     67 % 0.00 in /  0 mm WeatherDisplay:10.37 W/m2 FEW
14:09 58.9 °F /  14.9 °C 46.7 °F /  8.2 °C 30.24 in /  1023.9 hPa Calm   2.0 mph /  3.2 km/h 64 % 0.00 in /  0 mm WeatherDisplay:10.37 W/m2 FEW
14:14 59.1 °F /  15.1 °C 47.3 °F /  8.5 °C 30.24 in /  1023.9 hPa Calm   1.0 mph /  1.6 km/h 65 % 0.00 in /  0 mm WeatherDisplay:10.37 W/m2 BKN
14:19 59.3 °F /  15.2 °C 45.8 °F /  7.7 °C 30.24 in /  1023.9 hPa Calm     61 % 0.00 in /  0 mm WeatherDisplay:10.37 W/m2 BKN
14:24 59.5 °F /  15.3 °C 45.6 °F /  7.6 °C 30.24 in /  1023.9 hPa Calm     60 % 0.00 in /  0 mm WeatherDisplay:10.37 W/m2 BKN
14:29 59.6 °F /  15.3 °C 45.7 °F /  7.6 °C 30.24 in /  1023.9 hPa Calm   1.0 mph /  1.6 km/h 60 % 0.00 in /  0 mm WeatherDisplay:10.37 W/m2 BKN
14:34 59.8 °F /  15.4 °C 46.3 °F /  7.9 °C 30.24 in /  1023.9 hPa Calm     61 % 0.00 in /  0 mm WeatherDisplay:10.37 W/m2 BKN
14:39 60.0 °F /  15.6 °C 46.5 °F /  8.1 °C 30.23 in /  1023.6 hPa Calm   1.0 mph /  1.6 km/h 61 % 0.00 in /  0 mm WeatherDisplay:10.37 W/m2 BKN
14:44 60.1 °F /  15.6 °C 46.6 °F /  8.1 °C 30.23 in /  1023.6 hPa Calm     61 % 0.00 in /  0 mm WeatherDisplay:10.37 W/m2 BKN
14:49 60.2 °F /  15.7 °C 46.3 °F /  7.9 °C 30.23 in /  1023.6 hPa Calm     60 % 0.00 in /  0 mm WeatherDisplay:10.37 W/m2 BKN
14:54 60.3 °F /  15.7 °C 47.2 °F /  8.4 °C 30.23 in /  1023.6 hPa Calm     62 % 0.00 in /  0 mm WeatherDisplay:10.37 W/m2 BKN
14:59 60.4 °F /  15.8 °C 47.7 °F /  8.7 °C 30.23 in /  1023.6 hPa Calm     63 % 0.00 in /  0 mm WeatherDisplay:10.37 W/m2 BKN
15:04 60.4 °F /  15.8 °C 47.3 °F /  8.5 °C 30.23 in /  1023.6 hPa Calm     62 % 0.00 in /  0 mm WeatherDisplay:10.37 W/m2 BKN
15:09 60.3 °F /  15.7 °C 46.4 °F /  8 °C 30.22 in /  1023.2 hPa Calm     60 % 0.00 in /  0 mm WeatherDisplay:10.37 W/m2 BKN
15:14 60.3 °F /  15.7 °C 47.2 °F /  8.4 °C 30.22 in /  1023.2 hPa Calm     62 % 0.00 in /  0 mm WeatherDisplay:10.37 W/m2 BKN
15:19 60.3 °F /  15.7 °C 47.2 °F /  8.4 °C 30.22 in /  1023.2 hPa Calm     62 % 0.00 in /  0 mm WeatherDisplay:10.37 W/m2 BKN
15:24 60.3 °F /  15.7 °C 47.6 °F /  8.7 °C 30.22 in /  1023.2 hPa Calm     63 % 0.00 in /  0 mm WeatherDisplay:10.37 W/m2 BKN
15:29 60.2 °F /  15.7 °C 48.4 °F /  9.1 °C 30.21 in /  1022.9 hPa Calm     65 % 0.00 in /  0 mm WeatherDisplay:10.37 W/m2 BKN
15:34 60.1 °F /  15.6 °C 47.0 °F /  8.3 °C 30.21 in /  1022.9 hPa Calm     62 % 0.00 in /  0 mm WeatherDisplay:10.37 W/m2 BKN
15:39 60.0 °F /  15.6 °C 46.9 °F /  8.3 °C 30.21 in /  1022.9 hPa Calm   1.0 mph /  1.6 km/h 62 % 0.00 in /  0 mm WeatherDisplay:10.37 W/m2 BKN
15:44 59.9 °F /  15.5 °C 46.8 °F /  8.2 °C 30.21 in /  1022.9 hPa Calm   1.0 mph /  1.6 km/h 62 % 0.00 in /  0 mm WeatherDisplay:10.37 W/m2 BKN
15:49 59.8 °F /  15.4 °C 47.2 °F /  8.4 °C 30.21 in /  1022.9 hPa Calm   1.0 mph /  1.6 km/h 63 % 0.00 in /  0 mm WeatherDisplay:10.37 W/m2 BKN
15:54 59.6 °F /  15.3 °C 46.2 °F /  7.9 °C 30.20 in /  1022.6 hPa Calm   1.0 mph /  1.6 km/h 61 % 0.00 in /  0 mm WeatherDisplay:10.37 W/m2 BKN
15:59 59.6 °F /  15.3 °C 47.0 °F /  8.3 °C 30.20 in /  1022.6 hPa Calm     63 % 0.00 in /  0 mm WeatherDisplay:10.37 W/m2 BKN
16:04 59.5 °F /  15.3 °C 47.3 °F /  8.5 °C 30.21 in /  1022.9 hPa Calm     64 % 0.00 in /  0 mm WeatherDisplay:10.37 W/m2 BKN
16:09 59.4 °F /  15.2 °C 46.8 °F /  8.2 °C 30.21 in /  1022.9 hPa Calm     63 % 0.00 in /  0 mm WeatherDisplay:10.37 W/m2 BKN
16:14 59.4 °F /  15.2 °C 46.8 °F /  8.2 °C 30.21 in /  1022.9 hPa Calm     63 % 0.00 in /  0 mm WeatherDisplay:10.37 W/m2 BKN
16:19 59.3 °F /  15.2 °C 46.7 °F /  8.2 °C 30.20 in /  1022.6 hPa Calm     63 % 0.00 in /  0 mm WeatherDisplay:10.37 W/m2 BKN
16:24 59.2 °F /  15.1 °C 46.6 °F /  8.1 °C 30.20 in /  1022.6 hPa Calm     63 % 0.00 in /  0 mm WeatherDisplay:10.37 W/m2 BKN
16:29 59.1 °F /  15.1 °C 46.9 °F /  8.3 °C 30.20 in /  1022.6 hPa Calm     64 % 0.00 in /  0 mm WeatherDisplay:10.37 W/m2 BKN
16:34 59.0 °F /  15 °C 46.8 °F /  8.2 °C 30.20 in /  1022.6 hPa Calm     64 % 0.00 in /  0 mm WeatherDisplay:10.37 W/m2 BKN
16:39 58.9 °F /  14.9 °C 47.2 °F /  8.4 °C 30.20 in /  1022.6 hPa Calm     65 % 0.00 in /  0 mm WeatherDisplay:10.37 W/m2 BKN
16:44 58.8 °F /  14.9 °C 47.5 °F /  8.6 °C 30.20 in /  1022.6 hPa Calm     66 % 0.00 in /  0 mm WeatherDisplay:10.37 W/m2 BKN
16:49 58.7 °F /  14.8 °C 47.4 °F /  8.6 °C 30.20 in /  1022.6 hPa Calm     66 % 0.00 in /  0 mm WeatherDisplay:10.37 W/m2 BKN
16:54 58.6 °F /  14.8 °C 48.1 °F /  8.9 °C 30.19 in /  1022.2 hPa Calm     68 % 0.00 in /  0 mm WeatherDisplay:10.37 W/m2 BKN
16:59 58.5 °F /  14.7 °C 48.4 °F /  9.1 °C 30.19 in /  1022.2 hPa Calm     69 % 0.00 in /  0 mm WeatherDisplay:10.37 W/m2 BKN
17:09 58.2 °F /  14.6 °C 48.1 °F /  8.9 °C 30.19 in /  1022.2 hPa Calm     69 % 0.00 in /  0 mm WeatherDisplay:10.37 W/m2 BKN
17:14 58.1 °F /  14.5 °C 48.0 °F /  8.9 °C 30.19 in /  1022.2 hPa Calm     69 % 0.00 in /  0 mm WeatherDisplay:10.37 W/m2 BKN
17:19 57.9 °F /  14.4 °C 47.8 °F /  8.8 °C 30.19 in /  1022.2 hPa Calm     69 % 0.00 in /  0 mm WeatherDisplay:10.37 W/m2 BKN
17:24 57.7 °F /  14.3 °C 47.6 °F /  8.7 °C 30.19 in /  1022.2 hPa Calm     69 % 0.00 in /  0 mm WeatherDisplay:10.37 W/m2 BKN
17:29 57.6 °F /  14.2 °C 47.5 °F /  8.6 °C 30.19 in /  1022.2 hPa Calm     69 % 0.00 in /  0 mm WeatherDisplay:10.37 W/m2 BKN
17:34 57.5 °F /  14.2 °C 47.4 °F /  8.6 °C 30.19 in /  1022.2 hPa Calm     69 % 0.00 in /  0 mm WeatherDisplay:10.37 W/m2 BKN
17:39 57.4 °F /  14.1 °C 47.7 °F /  8.7 °C 30.19 in /  1022.2 hPa Calm     70 % 0.00 in /  0 mm WeatherDisplay:10.37 W/m2 BKN
17:44 57.3 °F /  14.1 °C 48.0 °F /  8.9 °C 30.19 in /  1022.2 hPa Calm     71 % 0.00 in /  0 mm WeatherDisplay:10.37 W/m2 BKN
17:49 57.2 °F /  14 °C 47.8 °F /  8.8 °C 30.19 in /  1022.2 hPa Calm     71 % 0.00 in /  0 mm WeatherDisplay:10.37 W/m2 BKN
17:54 57.1 °F /  13.9 °C 48.1 °F /  8.9 °C 30.19 in /  1022.2 hPa Calm     72 % 0.00 in /  0 mm WeatherDisplay:10.37 W/m2 BKN
17:59 56.9 °F /  13.8 °C 48.0 °F /  8.9 °C 30.19 in /  1022.2 hPa Calm     72 % 0.00 in /  0 mm WeatherDisplay:10.37 W/m2 BKN
18:04 56.8 °F /  13.8 °C 47.9 °F /  8.8 °C 30.19 in /  1022.2 hPa Calm     72 % 0.00 in /  0 mm WeatherDisplay:10.37 W/m2 BKN
18:09 56.7 °F /  13.7 °C 48.1 °F /  8.9 °C 30.19 in /  1022.2 hPa Calm     73 % 0.00 in /  0 mm WeatherDisplay:10.37 W/m2 BKN
18:14 56.6 °F /  13.7 °C 48.4 °F /  9.1 °C 30.19 in /  1022.2 hPa Calm     74 % 0.00 in /  0 mm WeatherDisplay:10.37 W/m2 BKN
18:19 56.5 °F /  13.6 °C 48.7 °F /  9.3 °C 30.19 in /  1022.2 hPa Calm     75 % 0.00 in /  0 mm WeatherDisplay:10.37 W/m2 BKN
18:24 56.4 °F /  13.6 °C 48.6 °F /  9.2 °C 30.19 in /  1022.2 hPa Calm     75 % 0.00 in /  0 mm WeatherDisplay:10.37 W/m2 BKN
18:29 56.3 °F /  13.5 °C 48.5 °F /  9.2 °C 30.19 in /  1022.2 hPa Calm     75 % 0.00 in /  0 mm WeatherDisplay:10.37 W/m2 BKN
18:34 56.2 °F /  13.4 °C 48.4 °F /  9.1 °C 30.19 in /  1022.2 hPa Calm     75 % 0.00 in /  0 mm WeatherDisplay:10.37 W/m2 BKN
18:39 56.1 °F /  13.4 °C 48.2 °F /  9 °C 30.19 in /  1022.2 hPa Calm     75 % 0.00 in /  0 mm WeatherDisplay:10.37 W/m2 BKN
18:44 55.9 °F /  13.3 °C 48.5 °F /  9.2 °C 30.19 in /  1022.2 hPa Calm     76 % 0.00 in /  0 mm WeatherDisplay:10.37 W/m2 BKN
18:49 55.8 °F /  13.2 °C 48.3 °F /  9.1 °C 30.19 in /  1022.2 hPa Calm     76 % 0.00 in /  0 mm WeatherDisplay:10.37 W/m2 BKN
18:54 55.7 °F /  13.2 °C 48.3 °F /  9.1 °C 30.19 in /  1022.2 hPa Calm     76 % 0.00 in /  0 mm WeatherDisplay:10.37 W/m2 BKN
18:59 55.6 °F /  13.1 °C 48.5 °F /  9.2 °C 30.19 in /  1022.2 hPa Calm     77 % 0.00 in /  0 mm WeatherDisplay:10.37 W/m2 BKN
19:04 55.5 °F /  13.1 °C 48.4 °F /  9.1 °C 30.19 in /  1022.2 hPa Calm     77 % 0.00 in /  0 mm WeatherDisplay:10.37 W/m2 BKN
19:09 55.4 °F /  13 °C 48.3 °F /  9.1 °C 30.19 in /  1022.2 hPa Calm     77 % 0.00 in /  0 mm WeatherDisplay:10.37 W/m2 BKN
19:14 55.3 °F /  12.9 °C 48.2 °F /  9 °C 30.19 in /  1022.2 hPa Calm     77 % 0.00 in /  0 mm WeatherDisplay:10.37 W/m2 OVC
19:19 55.2 °F /  12.9 °C 48.5 °F /  9.2 °C 30.19 in /  1022.2 hPa Calm     78 % 0.00 in /  0 mm WeatherDisplay:10.37 W/m2 OVC
19:24 55.1 °F /  12.8 °C 48.4 °F /  9.1 °C 30.19 in /  1022.2 hPa Calm     78 % 0.00 in /  0 mm WeatherDisplay:10.37 W/m2 OVC
19:29 55.1 °F /  12.8 °C 48.7 °F /  9.3 °C 30.19 in /  1022.2 hPa Calm     79 % 0.00 in /  0 mm WeatherDisplay:10.37 W/m2 OVC
19:34 55.0 °F /  12.8 °C 48.6 °F /  9.2 °C 30.19 in /  1022.2 hPa Calm     79 % 0.00 in /  0 mm WeatherDisplay:10.37 W/m2 OVC
19:39 54.9 °F /  12.7 °C 48.5 °F /  9.2 °C 30.19 in /  1022.2 hPa Calm     79 % 0.00 in /  0 mm WeatherDisplay:10.37 W/m2 OVC
19:44 54.8 °F /  12.7 °C 48.4 °F /  9.1 °C 30.19 in /  1022.2 hPa Calm     79 % 0.00 in /  0 mm WeatherDisplay:10.37 W/m2 OVC
19:49 54.7 °F /  12.6 °C 48.6 °F /  9.2 °C 30.19 in /  1022.2 hPa Calm     80 % 0.00 in /  0 mm WeatherDisplay:10.37 W/m2 OVC
19:54 54.7 °F /  12.6 °C 48.6 °F /  9.2 °C 30.19 in /  1022.2 hPa Calm     80 % 0.00 in /  0 mm WeatherDisplay:10.37 W/m2 OVC
19:59 54.6 °F /  12.6 °C 48.6 °F /  9.2 °C 30.18 in /  1021.9 hPa Calm     80 % 0.00 in /  0 mm WeatherDisplay:10.37 W/m2 OVC
20:04 54.5 °F /  12.5 °C 48.8 °F /  9.3 °C 30.18 in /  1021.9 hPa Calm     81 % 0.00 in /  0 mm WeatherDisplay:10.37 W/m2 OVC
20:09 54.5 °F /  12.5 °C 48.8 °F /  9.3 °C 30.18 in /  1021.9 hPa Calm     81 % 0.00 in /  0 mm WeatherDisplay:10.37 W/m2 OVC
20:14 54.4 °F /  12.4 °C 49.0 °F /  9.4 °C 30.18 in /  1021.9 hPa Calm     82 % 0.00 in /  0 mm WeatherDisplay:10.37 W/m2 OVC
20:19 54.4 °F /  12.4 °C 49.0 °F /  9.4 °C 30.18 in /  1021.9 hPa Calm     82 % 0.00 in /  0 mm WeatherDisplay:10.37 W/m2 OVC
20:24 54.3 °F /  12.4 °C 48.9 °F /  9.4 °C 30.18 in /  1021.9 hPa Calm     82 % 0.00 in /  0 mm WeatherDisplay:10.37 W/m2 OVC
20:29 54.2 °F /  12.3 °C 48.8 °F /  9.3 °C 30.18 in /  1021.9 hPa Calm     82 % 0.00 in /  0 mm WeatherDisplay:10.37 W/m2 OVC
20:34 54.1 °F /  12.3 °C 48.8 °F /  9.3 °C 30.18 in /  1021.9 hPa Calm     82 % 0.00 in /  0 mm WeatherDisplay:10.37 W/m2 OVC
20:39 54.1 °F /  12.3 °C 48.4 °F /  9.1 °C 30.18 in /  1021.9 hPa Calm     81 % 0.00 in /  0 mm WeatherDisplay:10.37 W/m2 OVC
20:44 54.0 °F /  12.2 °C 48.3 °F /  9.1 °C 30.18 in /  1021.9 hPa Calm     81 % 0.00 in /  0 mm WeatherDisplay:10.37 W/m2 OVC
20:49 54.0 °F /  12.2 °C 48.3 °F /  9.1 °C 30.18 in /  1021.9 hPa Calm     81 % 0.00 in /  0 mm WeatherDisplay:10.37 W/m2 OVC
20:54 53.9 °F /  12.2 °C 48.2 °F /  9 °C 30.18 in /  1021.9 hPa Calm     81 % 0.00 in /  0 mm WeatherDisplay:10.37 W/m2 OVC
20:59 53.9 °F /  12.2 °C 48.2 °F /  9 °C 30.18 in /  1021.9 hPa Calm     81 % 0.00 in /  0 mm WeatherDisplay:10.37 W/m2 OVC
21:04 53.9 °F /  12.2 °C 48.5 °F /  9.2 °C 30.18 in /  1021.9 hPa Calm     82 % 0.00 in /  0 mm WeatherDisplay:10.37 W/m2 OVC
21:09 53.9 °F /  12.2 °C 48.5 °F /  9.2 °C 30.18 in /  1021.9 hPa Calm     82 % 0.00 in /  0 mm WeatherDisplay:10.37 W/m2 OVC
21:14 53.8 °F /  12.1 °C 48.5 °F /  9.2 °C 30.18 in /  1021.9 hPa Calm     82 % 0.00 in /  0 mm WeatherDisplay:10.37 W/m2 OVC
21:19 53.8 °F /  12.1 °C 48.5 °F /  9.2 °C 30.18 in /  1021.9 hPa Calm     82 % 0.00 in /  0 mm WeatherDisplay:10.37 W/m2 OVC
21:24 53.8 °F /  12.1 °C 48.4 °F /  9.1 °C 30.18 in /  1021.9 hPa Calm     82 % 0.00 in /  0 mm WeatherDisplay:10.37 W/m2 OVC
21:29 53.8 °F /  12.1 °C 48.4 °F /  9.1 °C 30.18 in /  1021.9 hPa Calm     82 % 0.00 in /  0 mm WeatherDisplay:10.37 W/m2 OVC
21:34 53.8 °F /  12.1 °C 48.4 °F /  9.1 °C 30.18 in /  1021.9 hPa Calm     82 % 0.00 in /  0 mm WeatherDisplay:10.37 W/m2 OVC
21:39 53.7 °F /  12.1 °C 48.0 °F /  8.9 °C 30.18 in /  1021.9 hPa Calm     81 % 0.00 in /  0 mm WeatherDisplay:10.37 W/m2 OVC
21:44 53.7 °F /  12.1 °C 48.0 °F /  8.9 °C 30.18 in /  1021.9 hPa Calm     81 % 0.00 in /  0 mm WeatherDisplay:10.37 W/m2 OVC
21:49 53.6 °F /  12 °C 47.9 °F /  8.8 °C 30.18 in /  1021.9 hPa Calm     81 % 0.00 in /  0 mm WeatherDisplay:10.37 W/m2 OVC
21:54 53.6 °F /  12 °C 48.3 °F /  9.1 °C 30.18 in /  1021.9 hPa Calm     82 % 0.00 in /  0 mm WeatherDisplay:10.37 W/m2 -RA
22:04 53.6 °F /  12 °C 48.2 °F /  9 °C 30.18 in /  1021.9 hPa Calm     82 % 0.00 in /  0 mm WeatherDisplay:10.37 W/m2 -RA
22:09 53.6 °F /  12 °C 48.6 °F /  9.2 °C 30.18 in /  1021.9 hPa Calm     83 % 0.00 in /  0 mm WeatherDisplay:10.37 W/m2 -RA
22:19 53.6 °F /  12 °C 48.9 °F /  9.4 °C 30.17 in /  1021.6 hPa Calm     84 % 0.00 in /  0 mm WeatherDisplay:10.37 W/m2 -RA
22:24 53.6 °F /  12 °C 48.9 °F /  9.4 °C 30.18 in /  1021.9 hPa Calm     84 % 0.00 in /  0 mm WeatherDisplay:10.37 W/m2 -RA
22:29 53.6 °F /  12 °C 48.9 °F /  9.4 °C 30.18 in /  1021.9 hPa Calm     84 % 0.00 in /  0 mm WeatherDisplay:10.37 W/m2 -RA
22:34 53.6 °F /  12 °C 49.2 °F /  9.6 °C 30.17 in /  1021.6 hPa Calm     85 % 0.00 in /  0 mm WeatherDisplay:10.37 W/m2 -RA
22:39 53.5 °F /  11.9 °C 49.1 °F /  9.5 °C 30.17 in /  1021.6 hPa Calm     85 % 0.00 in /  0 mm WeatherDisplay:10.37 W/m2 -RA
22:44 53.5 °F /  11.9 °C 49.1 °F /  9.5 °C 30.17 in /  1021.6 hPa Calm     85 % 0.00 in /  0 mm WeatherDisplay:10.37 W/m2 -RA
22:49 53.4 °F /  11.9 °C 49.0 °F /  9.4 °C 30.17 in /  1021.6 hPa Calm     85 % 0.00 in /  0 mm WeatherDisplay:10.37 W/m2 -RA
22:54 53.4 °F /  11.9 °C 49.3 °F /  9.6 °C 30.17 in /  1021.6 hPa Calm     86 % 0.00 in /  0 mm WeatherDisplay:10.37 W/m2 -RA
22:59 53.4 °F /  11.9 °C 49.3 °F /  9.6 °C 30.17 in /  1021.6 hPa Calm     86 % 0.00 in /  0 mm WeatherDisplay:10.37 W/m2 -RA
23:04 53.4 °F /  11.9 °C 49.3 °F /  9.6 °C 30.17 in /  1021.6 hPa Calm     86 % 0.00 in /  0 mm WeatherDisplay:10.37 W/m2 OVC
23:09 53.4 °F /  11.9 °C 49.6 °F /  9.8 °C 30.17 in /  1021.6 hPa Calm     87 % 0.00 in /  0 mm WeatherDisplay:10.37 W/m2 OVC
23:19 53.4 °F /  11.9 °C 49.3 °F /  9.6 °C 30.17 in /  1021.6 hPa Calm     86 % 0.00 in /  0 mm WeatherDisplay:10.37 W/m2 OVC
23:24 53.4 °F /  11.9 °C 49.6 °F /  9.8 °C 30.17 in /  1021.6 hPa Calm     87 % 0.00 in /  0 mm WeatherDisplay:10.37 W/m2 OVC
23:29 53.4 °F /  11.9 °C 49.6 °F /  9.8 °C 30.17 in /  1021.6 hPa Calm     87 % 0.00 in /  0 mm WeatherDisplay:10.37 W/m2 OVC
23:34 53.4 °F /  11.9 °C 49.6 °F /  9.8 °C 30.17 in /  1021.6 hPa Calm     87 % 0.00 in /  0 mm WeatherDisplay:10.37 W/m2 OVC
23:39 53.4 °F /  11.9 °C 49.6 °F /  9.8 °C 30.17 in /  1021.6 hPa Calm     87 % 0.00 in /  0 mm WeatherDisplay:10.37 W/m2 OVC
23:44 53.4 °F /  11.9 °C 49.6 °F /  9.8 °C 30.16 in /  1021.2 hPa Calm     87 % 0.00 in /  0 mm WeatherDisplay:10.37 W/m2 OVC
23:49 53.4 °F /  11.9 °C 49.6 °F /  9.8 °C 30.16 in /  1021.2 hPa Calm     87 % 0.00 in /  0 mm WeatherDisplay:10.37 W/m2 OVC
23:54 53.4 °F /  11.9 °C 49.6 °F /  9.8 °C 30.16 in /  1021.2 hPa Calm     87 % 0.00 in /  0 mm WeatherDisplay:10.37 W/m2 OVC
23:59 53.4 °F /  11.9 °C 49.9 °F /  9.9 °C 30.16 in /  1021.2 hPa Calm     88 % 0.00 in /  0 mm WeatherDisplay:10.37 W/m2 OVC
Juneau County Weather
Compliments of Weather Underground - 2.75 mb